Time;durP1;ratioP1;P1;durP2;ratioP2;P2;SDS_P1;SDS_P2;PMS_P1;PMS_P2;Temp;Humidity;BMP_temperature;BMP_pressure;BME280_temperature;BME280_humidity;BME280_pressure;Samples;Min_cycle;Max_cycle;Signal;HPM_P1;HPM_P2
2022/10/24 00:01:20;;;;;;;7.72;3.33;;;13.20;99.90;;;;;;5009853;28;20041;-66
2022/10/24 00:03:46;;;;;;;17.08;3.85;;;13.20;99.90;;;;;;5006955;28;20109;-66
2022/10/24 00:06:12;;;;;;;10.02;4.28;;;13.20;99.90;;;;;;5006464;28;20569;-69
2022/10/24 00:08:39;;;;;;;13.75;4.00;;;13.10;99.90;;;;;;5009992;28;20126;-68
2022/10/24 00:11:25;;;;;;;9.18;3.72;;;13.10;99.90;;;;;;5008470;28;20022;-67
2022/10/24 00:13:53;;;;;;;10.27;3.78;;;13.10;99.90;;;;;;5000727;28;20045;-67
2022/10/24 00:16:19;;;;;;;15.13;3.95;;;13.10;99.90;;;;;;5003424;28;20132;-66
2022/10/24 00:18:45;;;;;;;5.28;3.33;;;13.10;99.90;;;;;;4992593;28;20106;-64
2022/10/24 00:21:11;;;;;;;17.83;4.03;;;13.10;99.90;;;;;;5005154;28;20057;-67
2022/10/24 00:23:37;;;;;;;14.52;2.85;;;13.10;99.90;;;;;;5008720;28;20041;-67
2022/10/24 00:26:06;;;;;;;10.70;3.92;;;13.10;99.90;;;;;;5008891;28;20590;-66
2022/10/24 00:28:33;;;;;;;15.10;3.53;;;13.10;99.90;;;;;;5006240;28;20143;-67
2022/10/24 00:30:59;;;;;;;17.92;3.83;;;13.10;99.90;;;;;;5008060;28;20028;-64
2022/10/24 00:33:25;;;;;;;11.50;3.72;;;13.10;99.90;;;;;;5008512;28;20097;-67
2022/10/24 00:35:51;;;;;;;10.70;4.72;;;13.10;99.90;;;;;;5002152;28;20565;-67
2022/10/24 00:38:17;;;;;;;6.00;3.53;;;13.10;99.90;;;;;;5001481;28;20041;-67
2022/10/24 00:40:42;;;;;;;10.75;4.40;;;13.00;99.90;;;;;;5003610;28;20033;-68
2022/10/24 00:43:20;;;;;;;9.10;3.25;;;13.00;99.90;;;;;;5001455;28;20057;-67
2022/10/24 00:45:53;;;;;;;11.65;3.78;;;13.00;99.90;;;;;;5000656;28;20030;-66
2022/10/24 00:48:52;;;;;;;13.23;4.03;;;13.10;99.90;;;;;;5006294;28;20988;-66
2022/10/24 00:51:26;;;;;;;16.35;4.40;;;13.10;99.90;;;;;;4996596;28;20038;-66
2022/10/24 00:54:00;;;;;;;10.10;4.70;;;13.10;99.90;;;;;;5005314;28;20053;-67
2022/10/24 00:56:30;;;;;;;14.77;4.45;;;13.20;99.90;;;;;;5012393;28;20578;-67
2022/10/24 00:58:58;;;;;;;10.85;4.07;;;13.20;99.90;;;;;;4986490;28;20443;-65
2022/10/24 01:01:24;;;;;;;9.82;3.65;;;13.20;99.90;;;;;;5008488;28;20435;-67
2022/10/24 01:03:50;;;;;;;6.03;3.40;;;13.10;99.90;;;;;;5004475;28;20030;-67
2022/10/24 01:06:48;;;;;;;8.93;3.47;;;13.10;99.90;;;;;;5026546;22;20056;-65
2022/10/24 01:09:41;;;;;;;13.68;4.05;;;13.10;99.90;;;;;;4995324;28;20088;-65
2022/10/24 01:12:29;;;;;;;13.32;4.18;;;13.10;99.90;;;;;;5011183;28;20056;-65
2022/10/24 01:15:24;;;;;;;16.33;4.68;;;13.20;99.90;;;;;;5008267;28;20497;-65
2022/10/24 01:18:01;;;;;;;13.98;3.92;;;13.10;99.90;;;;;;4992981;28;20456;-65
2022/10/24 01:20:51;;;;;;;13.27;4.50;;;13.10;99.90;;;;;;5009311;28;20499;-65
2022/10/24 01:23:38;;;;;;;11.55;3.70;;;13.10;99.90;;;;;;5009516;28;20100;-64
2022/10/24 01:26:42;;;;;;;10.98;4.13;;;13.10;99.90;;;;;;5009344;28;20034;-66
2022/10/24 01:29:24;;;;;;;10.77;4.10;;;13.10;99.90;;;;;;4966338;28;20775;-65
2022/10/24 01:31:53;;;;;;;14.27;4.10;;;13.10;99.90;;;;;;5006553;28;20488;-65
2022/10/24 01:34:40;;;;;;;13.00;4.72;;;13.20;99.90;;;;;;5010444;28;20531;-65
2022/10/24 01:37:12;;;;;;;9.70;4.05;;;13.20;99.90;;;;;;5011043;28;20105;-64
2022/10/24 01:39:45;;;;;;;15.77;5.53;;;13.20;99.90;;;;;;5009447;28;20040;-65
2022/10/24 01:42:14;;;;;;;12.20;3.80;;;13.20;99.90;;;;;;5003950;28;20025;-64
2022/10/24 01:44:44;;;;;;;9.27;4.22;;;13.20;99.90;;;;;;5010131;28;20038;-64
2022/10/24 01:47:26;;;;;;;14.38;4.68;;;13.20;99.90;;;;;;5008671;28;20034;-64
2022/10/24 01:50:00;;;;;;;9.30;3.65;;;13.30;99.90;;;;;;5006521;28;20053;-64
2022/10/24 01:52:29;;;;;;;10.10;3.47;;;13.30;99.90;;;;;;5010636;28;20018;-65
2022/10/24 01:54:55;;;;;;;19.98;4.75;;;13.20;99.90;;;;;;5010523;28;20482;-65
2022/10/24 01:57:27;;;;;;;10.98;4.05;;;13.20;99.90;;;;;;5009790;28;20036;-64
2022/10/24 01:59:52;;;;;;;12.00;3.92;;;13.10;99.90;;;;;;5007685;28;20041;-65
2022/10/24 02:02:41;;;;;;;13.35;4.60;;;13.10;99.90;;;;;;5010337;28;20037;-65
2022/10/24 02:05:12;;;;;;;10.88;4.65;;;13.10;99.90;;;;;;5009172;28;20026;-65
2022/10/24 02:07:40;;;;;;;13.02;5.25;;;13.10;99.90;;;;;;5009675;28;20026;-65
2022/10/24 02:10:21;;;;;;;9.48;4.10;;;13.10;99.90;;;;;;4991089;28;20029;-65
2022/10/24 02:12:51;;;;;;;16.45;3.75;;;13.10;99.90;;;;;;5008057;28;20026;-64
2022/10/24 02:15:30;;;;;;;10.88;3.67;;;13.00;99.90;;;;;;5005389;28;20037;-65
2022/10/24 02:17:56;;;;;;;8.95;3.83;;;13.00;99.90;;;;;;4992267;28;20038;-65
2022/10/24 02:20:33;;;;;;;11.70;4.10;;;12.90;99.90;;;;;;5010033;28;20014;-65
2022/10/24 02:23:27;;;;;;;10.45;4.05;;;12.90;99.90;;;;;;5011357;28;20488;-64
2022/10/24 02:25:57;;;;;;;13.23;4.18;;;12.90;99.90;;;;;;5004071;28;20024;-65
2022/10/24 02:28:28;;;;;;;18.25;4.18;;;12.90;99.90;;;;;;5010651;28;20029;-65
2022/10/24 02:31:01;;;;;;;16.33;4.85;;;13.00;99.90;;;;;;5010326;28;20064;-64
2022/10/24 02:33:28;;;;;;;8.05;4.72;;;13.00;99.90;;;;;;5005194;28;20031;-65
2022/10/24 02:35:55;;;;;;;12.38;3.47;;;13.00;99.90;;;;;;5008644;28;20029;-65
2022/10/24 02:38:27;;;;;;;11.07;4.72;;;13.00;99.90;;;;;;5008977;28;20018;-65
2022/10/24 02:40:56;;;;;;;10.48;3.88;;;13.00;99.90;;;;;;5011450;28;20022;-65
2022/10/24 02:43:22;;;;;;;20.15;3.90;;;13.00;99.90;;;;;;5010027;28;20025;-65
2022/10/24 02:45:50;;;;;;;15.10;5.03;;;12.90;99.90;;;;;;5010838;28;20093;-64
2022/10/24 02:48:20;;;;;;;8.23;3.60;;;12.90;99.90;;;;;;5007612;28;20033;-64
2022/10/24 02:50:47;;;;;;;8.82;3.13;;;13.00;99.90;;;;;;5002852;28;20030;-65
2022/10/24 02:53:14;;;;;;;18.38;4.85;;;13.00;99.90;;;;;;5008772;28;20033;-65
2022/10/24 02:55:39;;;;;;;12.70;3.60;;;13.10;99.90;;;;;;5010047;28;20113;-65
2022/10/24 02:58:05;;;;;;;9.93;3.60;;;13.10;99.90;;;;;;5009842;28;20113;-65
2022/10/24 03:00:31;;;;;;;11.43;4.28;;;13.20;99.90;;;;;;5002069;28;20080;-65
2022/10/24 03:02:56;;;;;;;7.65;3.58;;;13.20;99.90;;;;;;5000901;28;20455;-64
2022/10/24 03:05:22;;;;;;;13.40;3.65;;;13.20;99.90;;;;;;5009755;28;20029;-65
2022/10/24 03:07:48;;;;;;;14.50;3.63;;;13.20;99.90;;;;;;5010388;28;20405;-64
2022/10/24 03:10:13;;;;;;;11.15;3.90;;;13.30;99.90;;;;;;5009107;28;20057;-64
2022/10/24 03:12:39;;;;;;;10.15;2.95;;;13.40;99.90;;;;;;5015274;28;20041;-65
2022/10/24 03:15:05;;;;;;;8.10;3.28;;;13.40;99.90;;;;;;5010114;28;20033;-65
2022/10/24 03:17:31;;;;;;;11.23;3.53;;;13.40;99.90;;;;;;4988734;28;20050;-65
2022/10/24 03:19:56;;;;;;;10.45;3.50;;;13.40;99.90;;;;;;5008047;28;20030;-65
2022/10/24 03:22:22;;;;;;;8.73;3.83;;;13.30;99.90;;;;;;5010368;28;20029;-65
2022/10/24 03:24:48;;;;;;;9.05;3.45;;;13.40;99.90;;;;;;5009921;28;20388;-64
2022/10/24 03:27:13;;;;;;;12.38;3.53;;;13.40;99.90;;;;;;5007339;28;20037;-64
2022/10/24 03:29:39;;;;;;;10.00;3.10;;;13.30;99.90;;;;;;5009433;28;20050;-66
2022/10/24 03:32:05;;;;;;;12.23;3.35;;;13.30;99.90;;;;;;5009505;28;20076;-65
2022/10/24 03:34:31;;;;;;;6.97;3.17;;;13.40;99.90;;;;;;5009300;28;20033;-64
2022/10/24 03:36:56;;;;;;;10.25;3.08;;;13.30;99.90;;;;;;5009731;28;20128;-65
2022/10/24 03:39:22;;;;;;;11.98;3.75;;;13.30;99.90;;;;;;5009077;28;20509;-65
2022/10/24 03:41:47;;;;;;;17.33;3.30;;;13.40;99.90;;;;;;5008331;28;20033;-64
2022/10/24 03:44:13;;;;;;;9.05;3.47;;;13.40;99.90;;;;;;5009645;28;20557;-64
2022/10/24 03:46:38;;;;;;;10.43;3.45;;;13.40;99.90;;;;;;5008782;28;20045;-65
2022/10/24 03:49:04;;;;;;;10.75;3.85;;;13.40;99.90;;;;;;5009917;28;20374;-65
2022/10/24 03:51:30;;;;;;;12.98;3.20;;;13.40;99.90;;;;;;5009574;28;20041;-64
2022/10/24 03:53:55;;;;;;;11.52;3.72;;;13.30;99.90;;;;;;5009585;28;20053;-64
2022/10/24 03:56:21;;;;;;;6.80;3.20;;;13.40;99.90;;;;;;4994316;28;20079;-64
2022/10/24 03:58:47;;;;;;;13.23;4.18;;;13.30;99.90;;;;;;4991643;28;20053;-65
2022/10/24 04:01:16;;;;;;;11.40;3.45;;;13.30;99.90;;;;;;5007991;28;20029;-65
2022/10/24 04:03:43;;;;;;;8.00;2.95;;;13.30;99.90;;;;;;5009193;28;20053;-65
2022/10/24 04:06:09;;;;;;;9.75;3.25;;;13.30;99.90;;;;;;5009287;28;20112;-65
2022/10/24 04:08:34;;;;;;;17.70;4.15;;;13.30;99.90;;;;;;5005506;28;20113;-65
2022/10/24 04:11:00;;;;;;;7.75;2.97;;;13.40;99.90;;;;;;5009769;28;20081;-65
2022/10/24 04:13:26;;;;;;;7.47;2.67;;;13.40;99.90;;;;;;5007098;28;20072;-65
2022/10/24 04:15:51;;;;;;;6.95;2.45;;;13.40;99.90;;;;;;5009551;28;20375;-65
2022/10/24 04:18:17;;;;;;;17.33;2.72;;;13.40;99.90;;;;;;4991477;28;20069;-65
2022/10/24 04:20:43;;;;;;;11.93;4.10;;;13.40;99.90;;;;;;5006947;28;20029;-64
2022/10/24 04:23:09;;;;;;;8.88;3.55;;;13.40;99.90;;;;;;5008235;28;20018;-66
2022/10/24 04:25:34;;;;;;;14.55;3.20;;;13.50;99.90;;;;;;5009280;28;20088;-66
2022/10/24 04:28:00;;;;;;;4.90;2.38;;;13.40;99.90;;;;;;5011364;28;20056;-65
2022/10/24 04:30:27;;;;;;;10.30;2.92;;;13.40;99.90;;;;;;5006460;28;20030;-65
2022/10/24 04:32:53;;;;;;;5.75;2.33;;;13.40;99.90;;;;;;5012679;28;20018;-64
2022/10/24 04:35:18;;;;;;;9.52;2.70;;;13.40;99.90;;;;;;5010348;28;20421;-65
2022/10/24 04:37:44;;;;;;;7.53;2.58;;;13.40;99.90;;;;;;5012980;28;20489;-65
2022/10/24 04:40:10;;;;;;;9.48;2.30;;;13.40;99.90;;;;;;5010101;28;20038;-65
2022/10/24 04:42:36;;;;;;;5.85;1.85;;;13.40;99.90;;;;;;5012929;28;20057;-65
2022/10/24 04:45:02;;;;;;;10.02;1.92;;;13.30;99.90;;;;;;5011950;28;20030;-64
2022/10/24 04:47:27;;;;;;;10.45;2.60;;;13.30;99.90;;;;;;5009824;28;20556;-65
2022/10/24 04:49:53;;;;;;;11.88;2.45;;;13.30;99.90;;;;;;5012385;28;20113;-65
2022/10/24 04:52:19;;;;;;;8.02;2.40;;;13.40;99.90;;;;;;5012306;28;20049;-65
2022/10/24 04:54:44;;;;;;;8.57;2.17;;;13.50;99.90;;;;;;5013655;28;20397;-65
2022/10/24 04:57:10;;;;;;;8.25;1.90;;;13.60;99.90;;;;;;5010823;28;20033;-65
2022/10/24 04:59:35;;;;;;;6.25;1.85;;;13.60;99.90;;;;;;5012428;28;20021;-64
2022/10/24 05:02:01;;;;;;;3.08;1.73;;;13.60;99.90;;;;;;5011977;28;20036;-64
2022/10/24 05:04:26;;;;;;;6.97;2.08;;;13.50;99.90;;;;;;5010722;28;20467;-65
2022/10/24 05:06:52;;;;;;;6.03;2.10;;;13.60;99.90;;;;;;5012088;28;20030;-65
2022/10/24 05:09:18;;;;;;;3.35;1.55;;;13.50;99.90;;;;;;5008348;28;20022;-65
2022/10/24 05:11:44;;;;;;;10.40;1.95;;;13.50;99.90;;;;;;5011769;28;20401;-65
2022/10/24 05:14:09;;;;;;;5.82;1.80;;;13.50;99.90;;;;;;5011285;28;20041;-65
2022/10/24 05:16:35;;;;;;;5.95;2.58;;;13.60;99.90;;;;;;5014314;28;20022;-64
2022/10/24 05:19:00;;;;;;;3.20;1.55;;;13.60;99.90;;;;;;4994998;28;20053;-65
2022/10/24 05:21:26;;;;;;;4.93;1.48;;;13.60;99.90;;;;;;5010036;28;20040;-65
2022/10/24 05:23:52;;;;;;;4.20;1.75;;;13.70;99.90;;;;;;5012234;28;20397;-65
2022/10/24 05:26:18;;;;;;;5.05;2.42;;;13.80;99.90;;;;;;4994300;28;20120;-65
2022/10/24 05:28:43;;;;;;;4.45;1.58;;;13.80;99.90;;;;;;5011551;28;20109;-65
2022/10/24 05:31:09;;;;;;;5.70;1.70;;;13.80;99.90;;;;;;5010024;28;20034;-65
2022/10/24 05:33:35;;;;;;;3.70;1.48;;;13.70;99.90;;;;;;5009728;28;20548;-64
2022/10/24 05:36:00;;;;;;;8.73;1.52;;;13.70;99.90;;;;;;4991743;28;20157;-65
2022/10/24 05:38:26;;;;;;;9.07;1.90;;;13.70;99.90;;;;;;5008713;28;20034;-64
2022/10/24 05:40:52;;;;;;;4.57;1.55;;;13.60;99.90;;;;;;5011315;28;20026;-65
2022/10/24 05:43:18;;;;;;;5.90;1.50;;;13.60;99.90;;;;;;5012159;28;20366;-65
2022/10/24 05:45:46;;;;;;;5.25;1.77;;;13.50;99.90;;;;;;5010673;28;20033;-65
2022/10/24 05:48:12;;;;;;;11.77;2.08;;;13.40;99.90;;;;;;4990652;28;20039;-66
2022/10/24 05:50:37;;;;;;;5.13;2.22;;;13.30;99.90;;;;;;5010131;28;20068;-65
2022/10/24 05:53:03;;;;;;;4.43;2.03;;;13.30;99.90;;;;;;5012000;28;20108;-65
2022/10/24 05:55:30;;;;;;;7.88;1.77;;;13.30;99.90;;;;;;5011684;28;20057;-65
2022/10/24 05:57:55;;;;;;;6.82;2.15;;;13.20;99.90;;;;;;5009095;28;20053;-65
2022/10/24 06:00:21;;;;;;;10.25;2.58;;;13.20;99.90;;;;;;5005781;28;20066;-64
2022/10/24 06:02:47;;;;;;;3.97;1.20;;;13.20;99.90;;;;;;5011238;28;20124;-65
2022/10/24 06:05:13;;;;;;;3.22;1.75;;;13.10;99.90;;;;;;5009564;28;20057;-65
2022/10/24 06:07:40;;;;;;;4.43;1.77;;;13.10;99.90;;;;;;5011586;28;20030;-65
2022/10/24 06:10:07;;;;;;;3.53;1.73;;;13.10;99.90;;;;;;5003049;28;20025;-65
2022/10/24 06:12:35;;;;;;;11.57;2.72;;;13.10;99.90;;;;;;5011333;28;20049;-65
2022/10/24 06:15:02;;;;;;;6.65;2.20;;;13.10;99.90;;;;;;5010396;28;20014;-65
2022/10/24 06:17:27;;;;;;;4.80;1.83;;;13.10;99.90;;;;;;5007258;28;20064;-65
2022/10/24 06:19:53;;;;;;;7.45;3.28;;;13.10;99.90;;;;;;4993502;28;20069;-65
2022/10/24 06:22:19;;;;;;;3.95;1.85;;;13.10;99.90;;;;;;4992919;28;20539;-66
2022/10/24 06:24:45;;;;;;;10.80;3.45;;;13.20;99.90;;;;;;5011846;28;20036;-65
2022/10/24 06:27:10;;;;;;;4.97;2.40;;;13.20;99.90;;;;;;5006999;28;20153;-65
2022/10/24 06:29:36;;;;;;;6.13;2.17;;;13.20;99.90;;;;;;5001639;28;20029;-65
2022/10/24 06:32:02;;;;;;;7.05;2.10;;;13.20;99.90;;;;;;5004804;28;20093;-65
2022/10/24 06:34:28;;;;;;;9.07;2.20;;;13.30;99.90;;;;;;5010725;28;20486;-65
2022/10/24 06:36:53;;;;;;;11.77;2.10;;;13.40;99.90;;;;;;5010630;28;20088;-65
2022/10/24 06:39:19;;;;;;;13.65;2.10;;;13.50;99.90;;;;;;5011212;28;20088;-65
2022/10/24 06:41:45;;;;;;;6.18;2.13;;;13.60;99.90;;;;;;5010210;28;20025;-65
2022/10/24 06:44:10;;;;;;;11.43;2.65;;;13.70;99.90;;;;;;5007784;28;20038;-64
2022/10/24 06:46:36;;;;;;;9.65;2.72;;;13.70;99.90;;;;;;5010357;28;20482;-65
2022/10/24 06:49:02;;;;;;;6.93;1.90;;;13.70;99.90;;;;;;5009241;28;20064;-65
2022/10/24 06:51:28;;;;;;;7.97;2.15;;;13.80;99.90;;;;;;4990053;28;20033;-65
2022/10/24 06:53:53;;;;;;;9.10;2.20;;;13.80;99.90;;;;;;4997799;28;20023;-65
2022/10/24 06:56:19;;;;;;;10.23;3.08;;;13.90;99.90;;;;;;4994619;28;20096;-65
2022/10/24 06:58:46;;;;;;;11.80;2.70;;;13.90;99.90;;;;;;5009372;28;20046;-65
2022/10/24 07:01:18;;;;;;;6.70;2.28;;;13.90;99.90;;;;;;5007833;28;20453;-65
2022/10/24 07:03:45;;;;;;;10.80;2.03;;;13.90;99.90;;;;;;5008613;28;20055;-65
2022/10/24 07:06:20;;;;;;;3.53;1.60;;;14.00;99.90;;;;;;5002704;28;20053;-65
2022/10/24 07:08:46;;;;;;;7.70;2.35;;;14.10;99.90;;;;;;5005998;28;20493;-64
2022/10/24 07:11:13;;;;;;;7.80;2.03;;;14.20;99.90;;;;;;5008905;28;20034;-64
2022/10/24 07:13:39;;;;;;;3.53;1.38;;;14.20;99.90;;;;;;4998277;28;20503;-65
2022/10/24 07:16:05;;;;;;;3.10;1.30;;;14.30;99.90;;;;;;5004797;28;20030;-65
2022/10/24 07:18:31;;;;;;;7.22;1.50;;;14.20;99.90;;;;;;4998596;28;20037;-65
2022/10/24 07:21:02;;;;;;;7.63;1.80;;;14.30;99.90;;;;;;5008369;28;20473;-65
2022/10/24 07:23:27;;;;;;;5.40;2.55;;;14.40;99.90;;;;;;5001327;28;20044;-65
2022/10/24 07:25:53;;;;;;;13.30;2.40;;;14.40;99.90;;;;;;5007537;28;20026;-65
2022/10/24 07:28:18;;;;;;;6.90;1.80;;;14.40;99.90;;;;;;5007979;28;20041;-65
2022/10/24 07:30:44;;;;;;;7.57;1.73;;;14.50;99.90;;;;;;5009900;28;20076;-65
2022/10/24 07:33:10;;;;;;;4.60;1.58;;;14.50;99.90;;;;;;5007468;28;20018;-65
2022/10/24 07:35:41;;;;;;;13.52;1.70;;;14.50;99.90;;;;;;4987057;28;20484;-65
2022/10/24 07:38:06;;;;;;;3.47;1.33;;;14.50;99.90;;;;;;5005170;28;20022;-65
2022/10/24 07:40:32;;;;;;;3.70;1.25;;;14.50;99.90;;;;;;5000982;28;20042;-64
2022/10/24 07:42:57;;;;;;;5.57;3.00;;;14.50;99.90;;;;;;5008572;28;20544;-65
2022/10/24 07:45:23;;;;;;;4.13;1.63;;;14.50;99.90;;;;;;5007114;28;20026;-65
2022/10/24 07:47:48;;;;;;;5.63;1.80;;;14.50;99.90;;;;;;5010051;28;20026;-65
2022/10/24 07:50:16;;;;;;;12.57;1.88;;;14.50;99.90;;;;;;5009365;28;20021;-65
2022/10/24 07:52:41;;;;;;;7.15;1.48;;;14.60;99.90;;;;;;5004226;28;20503;-65
2022/10/24 07:55:07;;;;;;;5.95;1.52;;;14.70;99.90;;;;;;5007802;28;20109;-65
2022/10/24 07:57:33;;;;;;;7.32;1.95;;;14.70;99.90;;;;;;5006488;28;20397;-65
2022/10/24 07:59:59;;;;;;;6.70;1.95;;;14.80;99.90;;;;;;5006487;28;20029;-65
2022/10/24 08:02:24;;;;;;;10.98;1.83;;;14.90;99.90;;;;;;5004696;28;20044;-65
2022/10/24 08:04:50;;;;;;;2.67;1.30;;;15.10;99.90;;;;;;5008616;28;20095;-65
2022/10/24 08:07:15;;;;;;;6.88;1.48;;;15.30;99.90;;;;;;5008856;28;20056;-65
2022/10/24 08:09:43;;;;;;;4.30;1.60;;;15.40;99.90;;;;;;5007308;28;20030;-65
2022/10/24 08:12:10;;;;;;;7.32;1.35;;;15.50;99.90;;;;;;5008567;28;20481;-65
2022/10/24 08:14:36;;;;;;;11.30;1.60;;;15.60;99.90;;;;;;5005246;28;20021;-65
2022/10/24 08:17:03;;;;;;;5.00;1.40;;;15.60;99.90;;;;;;5005282;28;20045;-65
2022/10/24 08:19:30;;;;;;;6.90;1.20;;;15.50;99.90;;;;;;4991823;28;20041;-65
2022/10/24 08:21:55;;;;;;;4.70;2.03;;;15.60;99.90;;;;;;5008953;28;20528;-65
2022/10/24 08:24:21;;;;;;;7.75;1.48;;;15.60;99.90;;;;;;5005132;28;20029;-65
2022/10/24 08:26:47;;;;;;;5.38;1.17;;;15.50;99.90;;;;;;5002453;28;20562;-65
2022/10/24 08:29:14;;;;;;;9.63;1.80;;;15.50;99.90;;;;;;5035225;23;20041;-66
2022/10/24 08:31:40;;;;;;;4.60;1.38;;;15.50;99.90;;;;;;5022133;28;20026;-68
2022/10/24 08:34:05;;;;;;;4.93;1.80;;;15.60;99.90;;;;;;5008617;28;20113;-67
2022/10/24 08:36:33;;;;;;;5.68;1.20;;;15.50;99.90;;;;;;5027710;28;20125;-67
2022/10/24 08:39:00;;;;;;;3.90;1.20;;;15.60;99.90;;;;;;5018519;28;20036;-67
2022/10/24 08:41:36;;;;;;;3.17;1.55;;;15.70;99.90;;;;;;5005950;28;20493;-67
2022/10/24 08:44:05;;;;;;;1.75;1.40;;;15.80;99.90;;;;;;5008274;28;20033;-68
2022/10/24 08:46:39;;;;;;;9.02;1.40;;;15.90;99.90;;;;;;5006830;28;20046;-67
2022/10/24 08:49:18;;;;;;;4.65;1.42;;;16.10;99.90;;;;;;5008206;28;20030;-67
2022/10/24 08:51:50;;;;;;;5.47;1.42;;;16.20;99.90;;;;;;5002777;28;20095;-66
2022/10/24 08:54:24;;;;;;;5.10;0.93;;;16.30;99.90;;;;;;5006269;28;20029;-66
2022/10/24 08:56:50;;;;;;;;;;;16.20;99.90;;;;;;5008657;28;20022;-67
2022/10/24 08:59:16;;;;;;;2.03;1.02;;;16.20;99.90;;;;;;5007326;28;19925;-66
2022/10/24 09:01:48;;;;;;;7.05;1.42;;;16.40;99.90;;;;;;5006454;28;20030;-67
2022/10/24 09:04:18;;;;;;;5.65;1.88;;;16.50;99.90;;;;;;5006661;28;20634;-67
2022/10/24 09:06:45;;;;;;;3.80;1.52;;;16.60;99.90;;;;;;5007818;28;20515;-67
2022/10/24 09:09:25;;;;;;;8.27;1.45;;;16.70;99.90;;;;;;5001999;28;20045;-67
2022/10/24 09:12:07;;;;;;;2.42;1.02;;;16.80;99.90;;;;;;4998775;28;20026;-67
2022/10/24 09:14:36;;;;;;;5.28;1.52;;;16.90;99.90;;;;;;5009487;28;20026;-66
2022/10/24 09:17:09;;;;;;;6.88;1.13;;;17.00;99.90;;;;;;5007423;28;20155;-67
2022/10/24 09:19:36;;;;;;;5.50;1.43;;;17.10;99.90;;;;;;4990046;28;20046;-67
2022/10/24 09:22:02;;;;;;;6.30;1.10;;;17.10;99.90;;;;;;5009378;28;20829;-67
2022/10/24 09:24:46;;;;;;;4.35;1.00;;;17.20;99.90;;;;;;5009561;28;20041;-67
2022/10/24 09:27:20;;;;;;;;;;;17.40;99.90;;;;;;5010147;28;20104;-68
2022/10/24 09:29:45;;;;;;;3.20;0.98;;;17.70;99.90;;;;;;5008400;28;19917;-67
2022/10/24 09:32:15;;;;;;;5.38;1.30;;;17.90;99.90;;;;;;5010952;28;20076;-68
2022/10/24 09:34:40;;;;;;;4.45;1.27;;;18.10;99.90;;;;;;5011896;28;20022;-66
2022/10/24 09:37:06;;;;;;;2.40;0.75;;;18.30;99.90;;;;;;5011327;28;20041;-67
2022/10/24 09:39:35;;;;;;;5.03;1.20;;;18.50;99.90;;;;;;5007318;28;20041;-67
2022/10/24 09:42:02;;;;;;;5.45;1.65;;;18.50;99.90;;;;;;5011187;28;20531;-67
2022/10/24 09:44:36;;;;;;;5.82;1.08;;;18.50;99.90;;;;;;4992326;28;20473;-67
2022/10/24 09:47:04;;;;;;;9.82;1.95;;;18.60;99.90;;;;;;5008043;28;20041;-67
2022/10/24 09:49:40;;;;;;;5.38;1.25;;;18.70;99.90;;;;;;5011232;28;20382;-68
2022/10/24 09:52:17;;;;;;;3.80;1.10;;;19.00;99.90;;;;;;5012878;28;20100;-68
2022/10/24 09:54:44;;;;;;;6.65;1.10;;;19.10;99.90;;;;;;5010139;28;20033;-67
2022/10/24 09:57:09;;;;;;;5.72;1.40;;;19.10;99.90;;;;;;5010859;28;20101;-67
2022/10/24 09:59:40;;;;;;;2.58;0.63;;;19.10;99.90;;;;;;5010208;28;20124;-67
2022/10/24 10:02:18;;;;;;;5.47;1.08;;;19.10;99.90;;;;;;5011259;28;20064;-68
2022/10/24 10:04:45;;;;;;;8.77;1.92;;;19.40;99.90;;;;;;5003215;28;20041;-68
2022/10/24 10:07:18;;;;;;;16.20;7.80;;;19.40;99.90;;;;;;5008430;28;20029;-68
2022/10/24 10:09:56;;;;;;;21.27;8.68;;;19.40;99.90;;;;;;5009527;28;20595;-67
2022/10/24 10:12:24;;;;;;;11.07;6.07;;;19.30;99.90;;;;;;5011419;28;20084;-67
2022/10/24 10:14:50;;;;;;;7.30;2.42;;;19.10;99.90;;;;;;5008343;28;20568;-66
2022/10/24 10:17:23;;;;;;;5.60;1.10;;;18.80;99.90;;;;;;5011476;28;20029;-69
2022/10/24 10:19:50;;;;;;;6.65;1.40;;;18.60;99.90;;;;;;4991824;28;20828;-67
2022/10/24 10:22:31;;;;;;;5.60;1.30;;;18.50;99.90;;;;;;5009749;28;20064;-67
2022/10/24 10:24:58;;;;;;;6.03;1.73;;;18.40;99.90;;;;;;5008333;28;20112;-67
2022/10/24 10:27:36;;;;;;;4.38;0.95;;;18.40;99.90;;;;;;5007551;28;20065;-65
2022/10/24 10:30:10;;;;;;;5.88;1.15;;;18.30;99.90;;;;;;5010313;28;20091;-65
2022/10/24 10:32:45;;;;;;;2.90;1.08;;;18.20;99.90;;;;;;5010473;28;20556;-67
2022/10/24 10:35:25;;;;;;;9.30;1.10;;;18.10;99.90;;;;;;5009131;28;20370;-67
2022/10/24 10:38:12;;;;;;;3.03;1.17;;;18.10;99.90;;;;;;5002553;28;20030;-68
2022/10/24 10:40:49;;;;;;;5.72;1.30;;;18.10;99.90;;;;;;4999219;28;20097;-68
2022/10/24 10:43:55;;;;;;;7.20;1.20;;;18.20;99.90;;;;;;5011080;28;20053;-68
2022/10/24 10:46:37;;;;;;;8.05;1.20;;;18.40;99.90;;;;;;4970344;28;20034;-67
2022/10/24 10:49:15;;;;;;;9.10;1.50;;;18.40;99.90;;;;;;5008088;28;20030;-67
2022/10/24 10:51:50;;;;;;;6.05;1.08;;;18.30;99.90;;;;;;5011156;28;20025;-67
2022/10/24 10:54:44;;;;;;;3.92;1.00;;;18.20;99.90;;;;;;5010911;28;20037;-67
2022/10/24 10:57:23;;;;;;;4.78;1.00;;;18.10;99.90;;;;;;5010141;28;20507;-67
2022/10/24 11:00:07;;;;;;;4.95;1.20;;;17.90;99.90;;;;;;5006840;28;20091;-70
2022/10/24 11:03:05;;;;;;;6.20;1.10;;;17.90;99.90;;;;;;5008846;28;20112;-67
2022/10/24 11:06:11;;;;;;;8.07;1.52;;;17.80;99.90;;;;;;5006759;28;20040;-67
2022/10/24 11:08:55;;;;;;;4.63;0.90;;;17.70;99.90;;;;;;4988951;28;20021;-67
2022/10/24 11:11:29;;;;;;;5.35;1.20;;;17.80;99.90;;;;;;5008603;28;20033;-68
2022/10/24 11:14:20;;;;;;;9.27;2.10;;;17.80;99.90;;;;;;5003902;28;20030;-68
2022/10/24 11:16:47;;;;;;;8.30;2.25;;;17.70;99.90;;;;;;5002091;28;20030;-67
2022/10/24 11:19:38;;;;;;;6.95;1.67;;;17.70;99.90;;;;;;4988574;28;20062;-68
2022/10/24 11:22:04;;;;;;;5.85;1.45;;;17.70;99.90;;;;;;5005613;28;20042;-67
2022/10/24 11:24:38;;;;;;;7.00;1.45;;;17.70;99.90;;;;;;5008562;28;20029;-67
2022/10/24 11:27:12;;;;;;;11.52;1.45;;;17.80;99.90;;;;;;4990770;28;20034;-67
2022/10/24 11:29:47;;;;;;;8.10;1.45;;;17.70;99.90;;;;;;5005948;28;20120;-68
2022/10/24 11:32:36;;;;;;;4.10;1.83;;;17.60;99.90;;;;;;4989610;28;20038;-65
2022/10/24 11:35:28;;;;;;;8.73;1.90;;;17.70;99.90;;;;;;5009030;28;20038;-67
2022/10/24 11:38:02;;;;;;;9.52;1.10;;;17.80;99.90;;;;;;5002116;28;20056;-69
2022/10/24 11:40:29;;;;;;;6.80;1.20;;;17.80;99.90;;;;;;5005220;28;20026;-67
2022/10/24 11:42:56;;;;;;;4.60;0.88;;;17.90;99.90;;;;;;5008791;28;20033;-66
2022/10/24 11:45:27;;;;;;;5.00;1.00;;;17.90;99.90;;;;;;5006851;28;20104;-66
2022/10/24 11:48:12;;;;;;;7.47;1.13;;;18.00;99.90;;;;;;5007389;28;20033;-67
2022/10/24 11:50:47;;;;;;;8.43;1.63;;;18.00;99.90;;;;;;5008957;28;20045;-67
2022/10/24 11:53:42;;;;;;;5.35;1.17;;;18.10;99.90;;;;;;5007230;28;20045;-67
2022/10/24 11:56:33;;;;;;;4.72;0.98;;;18.00;99.90;;;;;;5009681;28;20026;-67
2022/10/24 11:59:11;;;;;;;10.63;1.13;;;18.00;99.90;;;;;;5005384;28;20046;-68
2022/10/24 12:01:39;;;;;;;13.05;1.52;;;18.00;99.90;;;;;;5008514;28;20041;-68
2022/10/24 12:04:07;;;;;;;5.28;1.30;;;18.00;99.90;;;;;;5008009;28;20564;-69
2022/10/24 12:06:49;;;;;;;7.38;1.40;;;18.10;99.90;;;;;;5008579;28;20501;-67
2022/10/24 12:09:43;;;;;;;6.53;1.83;;;18.00;99.90;;;;;;5007268;28;20026;-70
2022/10/24 12:12:34;;;;;;;10.85;2.45;;;17.90;99.90;;;;;;4999916;28;20025;-67
2022/10/24 12:15:24;;;;;;;5.45;1.20;;;17.80;99.90;;;;;;5006896;28;20517;-67
2022/10/24 12:18:19;;;;;;;6.53;0.98;;;17.80;99.90;;;;;;5004199;28;20038;-66
2022/10/24 12:20:49;;;;;;;4.60;1.00;;;17.80;99.90;;;;;;4990092;28;20050;-68
2022/10/24 12:23:26;;;;;;;6.78;1.00;;;17.70;99.90;;;;;;5005435;28;20119;-67
2022/10/24 12:26:26;;;;;;;6.75;1.35;;;17.70;99.90;;;;;;5002633;28;20034;-67
2022/10/24 12:29:00;;;;;;;4.40;1.20;;;17.70;99.90;;;;;;4990457;28;20038;-65
2022/10/24 12:31:29;;;;;;;4.88;1.15;;;17.70;99.90;;;;;;5007470;28;20052;-68
2022/10/24 12:34:26;;;;;;;5.47;1.20;;;17.70;99.90;;;;;;4991190;28;20030;-68
2022/10/24 12:37:10;;;;;;;8.40;1.02;;;17.70;99.90;;;;;;4990794;28;20456;-67
2022/10/24 12:39:45;;;;;;;2.67;0.93;;;17.60;99.90;;;;;;5007583;28;20066;-66
2022/10/24 12:42:36;;;;;;;16.17;5.72;;;17.50;99.90;;;;;;5009069;28;20112;-67
2022/10/24 12:45:06;;;;;;;30.63;11.50;;;17.40;99.90;;;;;;5008265;28;20507;-68
2022/10/24 12:47:42;;;;;;;17.15;6.90;;;17.30;99.90;;;;;;5008763;28;20582;-67
2022/10/24 12:50:23;;;;;;;10.05;2.72;;;17.30;99.90;;;;;;5004219;28;20066;-67
2022/10/24 12:52:56;;;;;;;5.45;1.58;;;17.20;99.90;;;;;;5011594;28;20026;-67
2022/10/24 12:55:28;;;;;;;7.57;1.45;;;17.20;99.90;;;;;;4993156;28;20405;-67
2022/10/24 12:57:55;;;;;;;8.10;1.33;;;17.20;99.90;;;;;;5009548;28;20391;-67
2022/10/24 13:00:24;;;;;;;5.43;1.17;;;17.10;99.90;;;;;;5012024;28;20030;-68
2022/10/24 13:03:04;;;;;;;7.75;1.40;;;17.10;99.90;;;;;;5007190;28;20092;-68